Hauptseite
METAR-TAF:

METAR-TAF

Flughäfen :

Flughafen Sitten

Sion, Schweiz

Breite: 46-13N, Länge: 007-20E, Höhe: 482 m

Beobachtung

Neuester Wetterbericht von vor 18 Minuten, um 04:50 UTC
Wind 4 kt aus Ost
Temperatur 2°C
Luftfeuchtigkeit 87%
Luftdruck 1006 hPa
Sichtweite 10 km oder mehr
keine Wolken unter 1500 m und keine Kumulonimbus oder Gewitterwolken

METAR: LSGS 170450Z AUTO 09004KT CAVOK 02/00 Q1006

Zeit: 06:08 (05:08 UTC)

Prognose

Neuester Wetterbericht von vor 14 Stunden und 43 Minuten, um 14:25 UTC
Gültige Prognose vom 16 um 15 UTC bis 16 um 24 UTC
Wind 3 kt aus unterschiedlichen Richtungen
Sichtweite 10 km oder mehr
Leicht bewölkt in der Höhe von 6000 ft

TAF: LSGS 161425Z 1615/1624 VRB03KT 9999 FEW060

Wetterbeobachtungen und Prognosen von mehr als 4000 Flughäfen (METAR und TAF Bericht).

Die verfügbaren Stationen werden durch gelbe und rote Markierungen auf der Karte dargestellt.

Führen Sie die Maus auf sie, um den Namen der Station zu sehen.

Darauf klicken, um die Beobachtung von Wetterbeobachtungen und Prognosen zu sehen.

Um die Karte zu ändern : klicken Sie auf den grünen Tasten mit einem schwarzen Kreuz Zum Vergrößern, auf den grünen Button mit einem Gedankenstrich zu verkleinern, oder auf die grünen Pfeile für benachbarte Karten.


METAR-TAF: